sensor_id;sensor_type;location;lat;lon;timestamp;pressure;altitude;pressure_sealevel;temperature;humidity
68145;BME280;55400;51.824;-0.196;2023-06-14T00:02:16;100715.55;;;19.49;32.66
68145;BME280;55400;51.824;-0.196;2023-06-14T00:06:16;100721.98;;;19.40;32.66
68145;BME280;55400;51.824;-0.196;2023-06-14T00:10:16;100721.98;;;19.26;32.56
68145;BME280;55400;51.824;-0.196;2023-06-14T00:14:16;100719.14;;;19.15;32.21
68145;BME280;55400;51.824;-0.196;2023-06-14T00:18:16;100718.61;;;18.93;32.70
68145;BME280;55400;51.824;-0.196;2023-06-14T00:22:16;100718.61;;;18.70;32.70
68145;BME280;55400;51.824;-0.196;2023-06-14T00:26:16;100718.58;;;18.50;33.41
68145;BME280;55400;51.824;-0.196;2023-06-14T00:30:16;100728.68999999999;;;18.36;34.03
68145;BME280;55400;51.824;-0.196;2023-06-14T00:34:16;100731.31;;;18.22;35.75
68145;BME280;55400;51.824;-0.196;2023-06-14T00:38:16;100731.58;;;18.13;36.82
68145;BME280;55400;51.824;-0.196;2023-06-14T00:42:24;100731.58;;;18.05;37.67
68145;BME280;55400;51.824;-0.196;2023-06-14T00:46:16;100731.53;;;18.03;37.98
68145;BME280;55400;51.824;-0.196;2023-06-14T00:50:16;100733.95000000001;;;17.99;38.12
68145;BME280;55400;51.824;-0.196;2023-06-14T00:54:16;100735.83;;;17.86;38.17
68145;BME280;55400;51.824;-0.196;2023-06-14T00:58:16;100743.61;;;17.74;38.97
68145;BME280;55400;51.824;-0.196;2023-06-14T01:02:17;100752.22;;;17.62;40.13
68145;BME280;55400;51.824;-0.196;2023-06-14T01:06:18;100752.22;;;17.52;40.13
68145;BME280;55400;51.824;-0.196;2023-06-14T01:10:20;100749.23999999999;;;17.47;40.18
68145;BME280;55400;51.824;-0.196;2023-06-14T01:14:16;100751.62;;;17.40;40.21
68145;BME280;55400;51.824;-0.196;2023-06-14T01:18:16;100761.94;;;17.28;40.15
68145;BME280;55400;51.824;-0.196;2023-06-14T01:22:16;100761.94;;;17.21;40.10
68145;BME280;55400;51.824;-0.196;2023-06-14T01:26:16;100757.78;;;17.09;39.17
68145;BME280;55400;51.824;-0.196;2023-06-14T01:30:16;100756.34;;;16.96;39.26
68145;BME280;55400;51.824;-0.196;2023-06-14T01:34:16;100761.54000000001;;;16.81;39.79
68145;BME280;55400;51.824;-0.196;2023-06-14T01:38:17;100763.18;;;16.70;40.03
68145;BME280;55400;51.824;-0.196;2023-06-14T01:42:16;100763.18;;;16.60;40.54
68145;BME280;55400;51.824;-0.196;2023-06-14T01:46:16;100753.47;;;16.44;41.20
68145;BME280;55400;51.824;-0.196;2023-06-14T01:50:16;100753.47;;;16.31;41.53
68145;BME280;55400;51.824;-0.196;2023-06-14T01:54:16;100748.03;;;16.20;42.02
68145;BME280;55400;51.824;-0.196;2023-06-14T01:58:16;100743.02;;;16.15;42.32
68145;BME280;55400;51.824;-0.196;2023-06-14T02:02:16;100742.58;;;16.08;42.83
68145;BME280;55400;51.824;-0.196;2023-06-14T02:06:16;100739.12;;;16.00;43.20
68145;BME280;55400;51.824;-0.196;2023-06-14T02:10:16;100739.12;;;15.99;43.52
68145;BME280;55400;51.824;-0.196;2023-06-14T02:14:16;100739.03;;;15.96;44.08
68145;BME280;55400;51.824;-0.196;2023-06-14T02:18:16;100737.66;;;15.92;44.25
68145;BME280;55400;51.824;-0.196;2023-06-14T02:22:16;100730.25;;;15.82;44.78
68145;BME280;55400;51.824;-0.196;2023-06-14T02:26:16;100730.03;;;15.71;45.66
68145;BME280;55400;51.824;-0.196;2023-06-14T02:30:16;100730.03;;;15.62;45.66
68145;BME280;55400;51.824;-0.196;2023-06-14T02:34:16;100720.67;;;15.55;46.25
68145;BME280;55400;51.824;-0.196;2023-06-14T02:38:16;100707.70999999999;;;15.54;46.75
68145;BME280;55400;51.824;-0.196;2023-06-14T02:42:17;100707.70999999999;;;15.49;46.98
68145;BME280;55400;51.824;-0.196;2023-06-14T02:46:16;100704.45999999999;;;15.45;47.69
68145;BME280;55400;51.824;-0.196;2023-06-14T02:50:16;100701.53;;;15.42;49.45
68145;BME280;55400;51.824;-0.196;2023-06-14T02:54:16;100701.47;;;15.44;50.47
68145;BME280;55400;51.824;-0.196;2023-06-14T02:58:16;100701.47;;;15.47;50.47
68145;BME280;55400;51.824;-0.196;2023-06-14T03:02:16;100698.94;;;15.53;51.85
68145;BME280;55400;51.824;-0.196;2023-06-14T03:06:16;100697.53;;;15.55;52.08
68145;BME280;55400;51.824;-0.196;2023-06-14T03:10:16;100698.97;;;15.57;52.25
68145;BME280;55400;51.824;-0.196;2023-06-14T03:18:17;100698.47;;;15.56;51.52
68145;BME280;55400;51.824;-0.196;2023-06-14T03:22:16;100703.99;;;15.59;52.32
68145;BME280;55400;51.824;-0.196;2023-06-14T03:26:17;100699.03;;;15.56;52.47
68145;BME280;55400;51.824;-0.196;2023-06-14T03:30:17;100697.45;;;15.50;52.62
68145;BME280;55400;51.824;-0.196;2023-06-14T03:34:17;100699.23999999999;;;15.43;52.90
68145;BME280;55400;51.824;-0.196;2023-06-14T03:38:16;100702.28;;;15.36;53.55
68145;BME280;55400;51.824;-0.196;2023-06-14T03:42:17;100702.28;;;15.33;53.14
68145;BME280;55400;51.824;-0.196;2023-06-14T03:46:16;100704.97;;;15.25;53.35
68145;BME280;55400;51.824;-0.196;2023-06-14T03:50:17;100709.12;;;15.22;53.92
68145;BME280;55400;51.824;-0.196;2023-06-14T03:54:16;100710.53;;;15.18;53.47
68145;BME280;55400;51.824;-0.196;2023-06-14T03:58:17;100708.87;;;15.13;54.20
68145;BME280;55400;51.824;-0.196;2023-06-14T04:02:16;100710.53;;;15.05;54.53
68145;BME280;55400;51.824;-0.196;2023-06-14T04:06:17;100710.53;;;14.99;54.53
68145;BME280;55400;51.824;-0.196;2023-06-14T04:10:16;100710.1;;;15.01;55.16
68145;BME280;55400;51.824;-0.196;2023-06-14T04:18:17;100711.51999999999;;;14.98;55.23
68145;BME280;55400;51.824;-0.196;2023-06-14T04:22:16;100711.51999999999;;;14.93;55.23
68145;BME280;55400;51.824;-0.196;2023-06-14T04:26:17;100709.91;;;14.88;55.62
68145;BME280;55400;51.824;-0.196;2023-06-14T04:30:17;100709.34;;;14.83;55.64
68145;BME280;55400;51.824;-0.196;2023-06-14T04:34:17;100709.58;;;14.82;56.40
68145;BME280;55400;51.824;-0.196;2023-06-14T04:38:17;100716.53;;;14.83;56.08
68145;BME280;55400;51.824;-0.196;2023-06-14T04:42:17;100722.85;;;14.82;56.45
68145;BME280;55400;51.824;-0.196;2023-06-14T04:50:17;100720.19;;;14.84;56.44
68145;BME280;55400;51.824;-0.196;2023-06-14T04:54:17;100719.11;;;14.87;56.60
68145;BME280;55400;51.824;-0.196;2023-06-14T04:58:17;100728.38;;;14.91;57.11
68145;BME280;55400;51.824;-0.196;2023-06-14T05:02:17;100729.90999999999;;;14.96;57.28
68145;BME280;55400;51.824;-0.196;2023-06-14T05:06:17;100733.01;;;14.99;57.46
68145;BME280;55400;51.824;-0.196;2023-06-14T05:10:17;100734.41;;;15.05;57.61
68145;BME280;55400;51.824;-0.196;2023-06-14T05:14:17;100733.39;;;15.07;57.52
68145;BME280;55400;51.824;-0.196;2023-06-14T05:18:17;100733.17;;;15.10;57.84
68145;BME280;55400;51.824;-0.196;2023-06-14T05:22:17;100737.13;;;15.14;58.43
68145;BME280;55400;51.824;-0.196;2023-06-14T05:26:17;100735.53;;;15.17;58.61
68145;BME280;55400;51.824;-0.196;2023-06-14T05:30:17;100739.25;;;15.21;58.85
68145;BME280;55400;51.824;-0.196;2023-06-14T05:34:17;100741.85;;;15.29;58.15
68145;BME280;55400;51.824;-0.196;2023-06-14T05:38:17;100733.84;;;15.36;58.78
68145;BME280;55400;51.824;-0.196;2023-06-14T05:42:17;100733.84;;;15.42;58.90
68145;BME280;55400;51.824;-0.196;2023-06-14T05:46:17;100734.93999999999;;;15.44;57.89
68145;BME280;55400;51.824;-0.196;2023-06-14T05:50:17;100738.95;;;15.51;57.88
68145;BME280;55400;51.824;-0.196;2023-06-14T05:54:17;100742.65000000001;;;15.59;58.04
68145;BME280;55400;51.824;-0.196;2023-06-14T05:58:17;100742.65000000001;;;15.68;58.44
68145;BME280;55400;51.824;-0.196;2023-06-14T06:02:17;100744.62;;;15.77;58.53
68145;BME280;55400;51.824;-0.196;2023-06-14T06:06:17;100744.62;;;15.84;58.76
68145;BME280;55400;51.824;-0.196;2023-06-14T06:10:17;100742.58;;;15.95;58.37
68145;BME280;55400;51.824;-0.196;2023-06-14T06:14:17;100742.58;;;16.01;58.37
68145;BME280;55400;51.824;-0.196;2023-06-14T06:18:17;100745.59000000001;;;16.05;57.49
68145;BME280;55400;51.824;-0.196;2023-06-14T06:22:17;100742.98999999999;;;16.11;57.85
68145;BME280;55400;51.824;-0.196;2023-06-14T06:26:17;100741.81999999999;;;16.18;57.86
68145;BME280;55400;51.824;-0.196;2023-06-14T06:30:17;100746.44;;;16.25;57.79
68145;BME280;55400;51.824;-0.196;2023-06-14T06:34:17;100753.22;;;16.34;58.14
68145;BME280;55400;51.824;-0.196;2023-06-14T06:38:17;100753.22;;;16.40;58.14
68145;BME280;55400;51.824;-0.196;2023-06-14T06:42:17;100754.72;;;16.45;56.69
68145;BME280;55400;51.824;-0.196;2023-06-14T06:46:17;100760.53;;;16.50;58.42
68145;BME280;55400;51.824;-0.196;2023-06-14T06:50:17;100760.17;;;16.58;58.65
68145;BME280;55400;51.824;-0.196;2023-06-14T06:54:17;100760.17;;;16.66;58.23
68145;BME280;55400;51.824;-0.196;2023-06-14T06:58:17;100746.36;;;16.76;58.10
68145;BME280;55400;51.824;-0.196;2023-06-14T07:02:17;100746.36;;;16.84;58.26
68145;BME280;55400;51.824;-0.196;2023-06-14T07:06:17;100749.56;;;16.92;57.92
68145;BME280;55400;51.824;-0.196;2023-06-14T07:10:17;100757.81;;;17.01;56.50
68145;BME280;55400;51.824;-0.196;2023-06-14T07:14:17;100769.17;;;17.09;57.43
68145;BME280;55400;51.824;-0.196;2023-06-14T07:18:17;100769.17;;;17.17;57.98
68145;BME280;55400;51.824;-0.196;2023-06-14T07:22:17;100774.03;;;17.21;58.07
68145;BME280;55400;51.824;-0.196;2023-06-14T07:26:17;100774.03;;;17.30;57.60
68145;BME280;55400;51.824;-0.196;2023-06-14T07:30:17;100777.98;;;17.43;57.39
68145;BME280;55400;51.824;-0.196;2023-06-14T07:34:17;100777.98;;;17.52;57.39
68145;BME280;55400;51.824;-0.196;2023-06-14T07:38:17;100773.71;;;17.61;57.24
68145;BME280;55400;51.824;-0.196;2023-06-14T07:42:17;100773.71;;;17.75;57.85
68145;BME280;55400;51.824;-0.196;2023-06-14T07:46:17;100775.83;;;17.86;57.19
68145;BME280;55400;51.824;-0.196;2023-06-14T07:50:17;100778.12;;;17.95;56.98
68145;BME280;55400;51.824;-0.196;2023-06-14T07:54:17;100779.85;;;18.04;57.50
68145;BME280;55400;51.824;-0.196;2023-06-14T07:58:17;100779.85;;;18.13;56.95
68145;BME280;55400;51.824;-0.196;2023-06-14T08:02:17;100782.23000000001;;;18.24;56.60
68145;BME280;55400;51.824;-0.196;2023-06-14T08:06:17;100781.68;;;18.40;56.25
68145;BME280;55400;51.824;-0.196;2023-06-14T08:10:18;100783.56;;;18.50;54.96
68145;BME280;55400;51.824;-0.196;2023-06-14T08:14:17;100783.56;;;18.62;56.67
68145;BME280;55400;51.824;-0.196;2023-06-14T08:18:17;100790.11;;;18.72;56.74
68145;BME280;55400;51.824;-0.196;2023-06-14T08:22:17;100791.25;;;18.83;56.25
68145;BME280;55400;51.824;-0.196;2023-06-14T08:26:17;100790.25;;;18.93;57.11
68145;BME280;55400;51.824;-0.196;2023-06-14T08:30:17;100790.25;;;19.01;56.19
68145;BME280;55400;51.824;-0.196;2023-06-14T08:34:17;100789.06;;;19.13;56.29
68145;BME280;55400;51.824;-0.196;2023-06-14T08:38:17;100787.75;;;19.29;55.83
68145;BME280;55400;51.824;-0.196;2023-06-14T08:42:17;100785.83;;;19.43;55.06
68145;BME280;55400;51.824;-0.196;2023-06-14T08:46:18;100789.51;;;19.52;54.76
68145;BME280;55400;51.824;-0.196;2023-06-14T08:50:19;100789.51;;;19.64;54.20
68145;BME280;55400;51.824;-0.196;2023-06-14T08:54:17;100792.85;;;19.78;54.89
68145;BME280;55400;51.824;-0.196;2023-06-14T08:58:17;100791.38;;;19.91;54.03
68145;BME280;55400;51.824;-0.196;2023-06-14T09:02:17;100794.53;;;20.02;54.53
68145;BME280;55400;51.824;-0.196;2023-06-14T09:06:17;100792.19;;;20.17;54.16
68145;BME280;55400;51.824;-0.196;2023-06-14T09:10:17;100792.19;;;20.29;53.21
68145;BME280;55400;51.824;-0.196;2023-06-14T09:14:18;100793.16;;;20.39;53.80
68145;BME280;55400;51.824;-0.196;2023-06-14T09:18:17;100799.22;;;20.47;53.43
68145;BME280;55400;51.824;-0.196;2023-06-14T09:22:17;100799.22;;;20.61;53.43
68145;BME280;55400;51.824;-0.196;2023-06-14T09:26:18;100798.18000000001;;;20.75;52.01
68145;BME280;55400;51.824;-0.196;2023-06-14T09:30:19;100798.18000000001;;;20.82;52.01
68145;BME280;55400;51.824;-0.196;2023-06-14T09:33:33;100797.85;;;20.82;52.02
68145;BME280;55400;51.824;-0.196;2023-06-14T09:34:17;100797.85;;;20.91;52.02
68145;BME280;55400;51.824;-0.196;2023-06-14T09:38:18;100804.86;;;21.02;51.46
68145;BME280;55400;51.824;-0.196;2023-06-14T09:42:18;100804.86;;;21.11;51.62
68145;BME280;55400;51.824;-0.196;2023-06-14T09:46:18;100803.47;;;21.21;51.63
68145;BME280;55400;51.824;-0.196;2023-06-14T09:50:17;100800.34000000001;;;21.31;51.76
68145;BME280;55400;51.824;-0.196;2023-06-14T09:54:20;100814.37;;;21.41;51.58
68145;BME280;55400;51.824;-0.196;2023-06-14T09:58:17;100814.37;;;21.50;50.37
68145;BME280;55400;51.824;-0.196;2023-06-14T10:02:21;100817.7;;;21.60;50.26
68145;BME280;55400;51.824;-0.196;2023-06-14T10:06:18;100817.7;;;21.68;49.89
68145;BME280;55400;51.824;-0.196;2023-06-14T10:10:12;100815.03;;;21.68;49.61
68145;BME280;55400;51.824;-0.196;2023-06-14T10:10:17;100813.81;;;21.80;49.20
68145;BME280;55400;51.824;-0.196;2023-06-14T10:14:17;100813.81;;;21.90;49.20
68145;BME280;55400;51.824;-0.196;2023-06-14T10:18:19;100808.97;;;22.00;49.24
68145;BME280;55400;51.824;-0.196;2023-06-14T10:22:18;100815.7;;;22.10;49.05
68145;BME280;55400;51.824;-0.196;2023-06-14T10:26:19;100816.95999999999;;;22.21;48.99
68145;BME280;55400;51.824;-0.196;2023-06-14T10:30:18;100817.14;;;22.31;48.94
68145;BME280;55400;51.824;-0.196;2023-06-14T10:34:21;100817.24;;;22.40;48.84
68145;BME280;55400;51.824;-0.196;2023-06-14T10:38:18;100810.1;;;22.46;48.51
68145;BME280;55400;51.824;-0.196;2023-06-14T10:42:18;100810.1;;;22.54;48.51
68145;BME280;55400;51.824;-0.196;2023-06-14T10:46:18;100815.52;;;22.61;48.42
68145;BME280;55400;51.824;-0.196;2023-06-14T10:50:19;100818.02;;;22.71;48.42
68145;BME280;55400;51.824;-0.196;2023-06-14T10:54:19;100810.91;;;22.79;48.24
68145;BME280;55400;51.824;-0.196;2023-06-14T10:58:18;100810.91;;;22.92;47.97
68145;BME280;55400;51.824;-0.196;2023-06-14T11:02:24;100812.34;;;23.09;47.72
68145;BME280;55400;51.824;-0.196;2023-06-14T11:06:19;100812.34;;;23.22;47.72
68145;BME280;55400;51.824;-0.196;2023-06-14T11:10:20;100802.06;;;23.34;47.62
68145;BME280;55400;51.824;-0.196;2023-06-14T11:14:18;100802.06;;;23.50;47.62
68145;BME280;55400;51.824;-0.196;2023-06-14T11:18:18;100800.05;;;23.59;47.36
68145;BME280;55400;51.824;-0.196;2023-06-14T11:22:18;100791.23;;;23.68;47.01
68145;BME280;55400;51.824;-0.196;2023-06-14T11:26:24;100794.78;;;23.73;47.02
68145;BME280;55400;51.824;-0.196;2023-06-14T11:30:18;100781.42;;;23.86;47.07
68145;BME280;55400;51.824;-0.196;2023-06-14T11:34:18;100781.42;;;24.00;47.07
68145;BME280;55400;51.824;-0.196;2023-06-14T11:38:18;100780.0;;;24.16;46.98
68145;BME280;55400;51.824;-0.196;2023-06-14T11:42:18;100784.07999999999;;;24.32;46.30
68145;BME280;55400;51.824;-0.196;2023-06-14T11:46:18;100784.07999999999;;;24.44;46.20
68145;BME280;55400;51.824;-0.196;2023-06-14T11:50:18;100780.94;;;24.57;45.76
68145;BME280;55400;51.824;-0.196;2023-06-14T11:54:18;100768.83;;;24.65;45.41
68145;BME280;55400;51.824;-0.196;2023-06-14T11:58:18;100768.83;;;24.75;44.90
68145;BME280;55400;51.824;-0.196;2023-06-14T12:02:18;100765.41;;;24.84;44.29
68145;BME280;55400;51.824;-0.196;2023-06-14T12:06:25;100759.99;;;24.97;43.90
68145;BME280;55400;51.824;-0.196;2023-06-14T12:10:18;100769.64;;;25.09;43.75
68145;BME280;55400;51.824;-0.196;2023-06-14T12:14:18;100768.36;;;25.18;43.15
68145;BME280;55400;51.824;-0.196;2023-06-14T12:18:18;100768.36;;;25.24;42.79
68145;BME280;55400;51.824;-0.196;2023-06-14T12:22:18;100764.45;;;25.35;42.38
68145;BME280;55400;51.824;-0.196;2023-06-14T12:26:19;100767.02;;;25.54;42.17
68145;BME280;55400;51.824;-0.196;2023-06-14T12:30:18;100769.26999999999;;;25.71;41.43
68145;BME280;55400;51.824;-0.196;2023-06-14T12:34:18;100764.83;;;25.87;40.83
68145;BME280;55400;51.824;-0.196;2023-06-14T12:38:18;100763.39;;;26.07;40.06
68145;BME280;55400;51.824;-0.196;2023-06-14T12:42:18;100764.67;;;26.30;40.29
68145;BME280;55400;51.824;-0.196;2023-06-14T12:46:18;100759.26;;;26.51;38.47
68145;BME280;55400;51.824;-0.196;2023-06-14T12:50:18;100758.76;;;26.62;38.13
68145;BME280;55400;51.824;-0.196;2023-06-14T12:54:18;100758.76;;;26.56;38.01
68145;BME280;55400;51.824;-0.196;2023-06-14T12:58:18;100752.43000000001;;;26.61;37.71
68145;BME280;55400;51.824;-0.196;2023-06-14T13:02:19;100760.63;;;26.59;37.49
68145;BME280;55400;51.824;-0.196;2023-06-14T13:06:20;100765.03;;;26.54;36.93
68145;BME280;55400;51.824;-0.196;2023-06-14T13:10:18;100759.79;;;26.65;36.76
68145;BME280;55400;51.824;-0.196;2023-06-14T13:14:18;100765.0;;;26.78;36.06
68145;BME280;55400;51.824;-0.196;2023-06-14T13:18:18;100765.0;;;26.95;36.04
68145;BME280;55400;51.824;-0.196;2023-06-14T13:22:18;100756.82;;;27.13;35.96
68145;BME280;55400;51.824;-0.196;2023-06-14T13:26:18;100765.47;;;27.21;36.02
68145;BME280;55400;51.824;-0.196;2023-06-14T13:30:18;100756.72;;;27.30;36.00
68145;BME280;55400;51.824;-0.196;2023-06-14T13:34:18;100755.42;;;27.44;36.06
68145;BME280;55400;51.824;-0.196;2023-06-14T13:38:18;100755.42;;;27.52;35.81
68145;BME280;55400;51.824;-0.196;2023-06-14T13:42:18;100751.05;;;27.45;35.65
68145;BME280;55400;51.824;-0.196;2023-06-14T13:46:18;100750.75;;;27.53;35.62
68145;BME280;55400;51.824;-0.196;2023-06-14T13:50:18;100745.87;;;27.71;35.43
68145;BME280;55400;51.824;-0.196;2023-06-14T13:54:19;100744.48;;;27.93;35.32
68145;BME280;55400;51.824;-0.196;2023-06-14T13:58:18;100753.11;;;28.09;35.20
68145;BME280;55400;51.824;-0.196;2023-06-14T14:02:19;100756.69;;;28.22;34.74
68145;BME280;55400;51.824;-0.196;2023-06-14T14:06:18;100756.69;;;28.33;34.74
68145;BME280;55400;51.824;-0.196;2023-06-14T14:10:18;100751.76;;;28.46;34.33
68145;BME280;55400;51.824;-0.196;2023-06-14T14:14:18;100740.3;;;28.61;33.86
68145;BME280;55400;51.824;-0.196;2023-06-14T14:18:18;100740.3;;;28.76;33.61
68145;BME280;55400;51.824;-0.196;2023-06-14T14:22:18;100743.26999999999;;;28.81;33.32
68145;BME280;55400;51.824;-0.196;2023-06-14T14:26:18;100741.74;;;28.90;33.32
68145;BME280;55400;51.824;-0.196;2023-06-14T14:30:18;100741.74;;;29.06;33.02
68145;BME280;55400;51.824;-0.196;2023-06-14T14:34:18;100748.38;;;29.18;32.69
68145;BME280;55400;51.824;-0.196;2023-06-14T14:38:18;100743.06;;;29.22;32.32
68145;BME280;55400;51.824;-0.196;2023-06-14T14:42:18;100737.77;;;29.31;31.92
68145;BME280;55400;51.824;-0.196;2023-06-14T14:46:18;100741.76999999999;;;29.45;32.01
68145;BME280;55400;51.824;-0.196;2023-06-14T14:50:19;100745.4;;;29.44;31.76
68145;BME280;55400;51.824;-0.196;2023-06-14T14:54:18;100745.4;;;29.38;31.76
68145;BME280;55400;51.824;-0.196;2023-06-14T14:58:18;100752.55;;;29.13;31.84
68145;BME280;55400;51.824;-0.196;2023-06-14T15:02:18;100749.37999999999;;;28.89;31.77
68145;BME280;55400;51.824;-0.196;2023-06-14T15:06:19;100749.64;;;28.73;32.26
68145;BME280;55400;51.824;-0.196;2023-06-14T15:10:18;100747.27;;;28.87;32.03
68145;BME280;55400;51.824;-0.196;2023-06-14T15:14:19;100749.03;;;29.03;32.03
68145;BME280;55400;51.824;-0.196;2023-06-14T15:18:18;100749.03;;;29.17;31.43
68145;BME280;55400;51.824;-0.196;2023-06-14T15:22:19;100749.95;;;29.29;30.34
68145;BME280;55400;51.824;-0.196;2023-06-14T15:26:18;100743.02;;;29.49;30.96
68145;BME280;55400;51.824;-0.196;2023-06-14T15:30:18;100744.59000000001;;;29.58;31.09
68145;BME280;55400;51.824;-0.196;2023-06-14T15:34:18;100746.37;;;29.48;30.25
68145;BME280;55400;51.824;-0.196;2023-06-14T15:38:19;100746.37;;;29.45;30.41
68145;BME280;55400;51.824;-0.196;2023-06-14T15:42:18;100742.19;;;29.46;30.64
68145;BME280;55400;51.824;-0.196;2023-06-14T15:46:19;100740.97;;;29.61;29.98
68145;BME280;55400;51.824;-0.196;2023-06-14T15:50:19;100738.87;;;29.80;30.13
68145;BME280;55400;51.824;-0.196;2023-06-14T15:54:19;100732.23000000001;;;29.97;30.71
68145;BME280;55400;51.824;-0.196;2023-06-14T15:58:19;100736.91;;;30.05;29.71
68145;BME280;55400;51.824;-0.196;2023-06-14T16:02:19;100736.91;;;30.24;29.54
68145;BME280;55400;51.824;-0.196;2023-06-14T16:06:19;100735.44;;;30.40;29.88
68145;BME280;55400;51.824;-0.196;2023-06-14T16:10:19;100740.11;;;30.27;28.60
68145;BME280;55400;51.824;-0.196;2023-06-14T16:14:19;100746.02;;;29.97;28.64
68145;BME280;55400;51.824;-0.196;2023-06-14T16:18:19;100742.24;;;29.61;29.07
68145;BME280;55400;51.824;-0.196;2023-06-14T16:22:19;100742.0;;;29.34;29.26
68145;BME280;55400;51.824;-0.196;2023-06-14T16:26:19;100739.28;;;29.13;29.59
68145;BME280;55400;51.824;-0.196;2023-06-14T16:30:19;100747.11;;;28.91;29.64
68145;BME280;55400;51.824;-0.196;2023-06-14T16:34:19;100742.72;;;28.84;29.46
68145;BME280;55400;51.824;-0.196;2023-06-14T16:38:19;100745.7;;;28.89;30.41
68145;BME280;55400;51.824;-0.196;2023-06-14T16:42:19;100745.79;;;28.90;29.96
68145;BME280;55400;51.824;-0.196;2023-06-14T16:46:27;100745.79;;;28.79;30.12
68145;BME280;55400;51.824;-0.196;2023-06-14T16:50:19;100747.81;;;28.63;29.65
68145;BME280;55400;51.824;-0.196;2023-06-14T16:54:19;100754.92;;;28.46;29.53
68145;BME280;55400;51.824;-0.196;2023-06-14T16:58:19;100755.11;;;28.33;29.88
68145;BME280;55400;51.824;-0.196;2023-06-14T17:02:19;100756.83;;;28.49;30.06
68145;BME280;55400;51.824;-0.196;2023-06-14T17:06:19;100756.92;;;28.83;29.79
68145;BME280;55400;51.824;-0.196;2023-06-14T17:10:19;100761.81;;;29.15;29.43
68145;BME280;55400;51.824;-0.196;2023-06-14T17:14:19;100764.48000000001;;;29.41;28.75
68145;BME280;55400;51.824;-0.196;2023-06-14T17:18:19;100757.34999999999;;;29.54;28.05
68145;BME280;55400;51.824;-0.196;2023-06-14T17:22:19;100760.39;;;29.66;27.48
68145;BME280;55400;51.824;-0.196;2023-06-14T17:26:19;100770.04;;;29.72;27.66
68145;BME280;55400;51.824;-0.196;2023-06-14T17:30:19;100769.46;;;29.65;27.67
68145;BME280;55400;51.824;-0.196;2023-06-14T17:34:19;100769.46;;;29.41;27.28
68145;BME280;55400;51.824;-0.196;2023-06-14T17:38:19;100782.26;;;29.44;27.30
68145;BME280;55400;51.824;-0.196;2023-06-14T17:42:19;100782.26;;;29.41;27.47
68145;BME280;55400;51.824;-0.196;2023-06-14T17:46:19;100789.29000000001;;;29.19;27.48
68145;BME280;55400;51.824;-0.196;2023-06-14T17:50:19;100789.29000000001;;;29.15;27.31
68145;BME280;55400;51.824;-0.196;2023-06-14T17:54:19;100792.7;;;29.04;27.06
68145;BME280;55400;51.824;-0.196;2023-06-14T17:58:19;100792.7;;;29.14;27.39
68145;BME280;55400;51.824;-0.196;2023-06-14T18:02:19;100798.42;;;29.24;27.50
68145;BME280;55400;51.824;-0.196;2023-06-14T18:06:19;100800.89;;;29.34;26.87
68145;BME280;55400;51.824;-0.196;2023-06-14T18:10:19;100800.89;;;29.42;26.87
68145;BME280;55400;51.824;-0.196;2023-06-14T18:14:19;100809.15;;;29.50;26.25
68145;BME280;55400;51.824;-0.196;2023-06-14T18:18:19;100807.23000000001;;;29.60;26.29
68145;BME280;55400;51.824;-0.196;2023-06-14T18:22:19;100806.72;;;29.67;26.22
68145;BME280;55400;51.824;-0.196;2023-06-14T18:26:20;100806.72;;;29.68;26.22
68145;BME280;55400;51.824;-0.196;2023-06-14T18:34:19;100819.94;;;29.72;25.44
68145;BME280;55400;51.824;-0.196;2023-06-14T18:38:19;100817.93000000001;;;29.69;25.87
68145;BME280;55400;51.824;-0.196;2023-06-14T18:42:19;100818.98;;;29.68;26.05
68145;BME280;55400;51.824;-0.196;2023-06-14T18:46:19;100832.84;;;29.62;25.58
68145;BME280;55400;51.824;-0.196;2023-06-14T18:50:19;100832.84;;;29.57;25.58
68145;BME280;55400;51.824;-0.196;2023-06-14T18:54:19;100837.01999999999;;;29.44;25.59
68145;BME280;55400;51.824;-0.196;2023-06-14T18:58:19;100837.01999999999;;;29.27;25.55
68145;BME280;55400;51.824;-0.196;2023-06-14T19:02:19;100841.78;;;28.91;26.55
68145;BME280;55400;51.824;-0.196;2023-06-14T19:06:19;100837.53;;;28.58;26.55
68145;BME280;55400;51.824;-0.196;2023-06-14T19:10:19;100837.53;;;28.29;26.97
68145;BME280;55400;51.824;-0.196;2023-06-14T19:14:19;100838.31;;;28.01;27.12
68145;BME280;55400;51.824;-0.196;2023-06-14T19:18:19;100844.86;;;27.77;27.78
68145;BME280;55400;51.824;-0.196;2023-06-14T19:22:19;100850.41;;;27.54;28.60
68145;BME280;55400;51.824;-0.196;2023-06-14T19:26:19;100852.45;;;27.32;28.60
68145;BME280;55400;51.824;-0.196;2023-06-14T19:30:19;100852.87;;;27.15;28.52
68145;BME280;55400;51.824;-0.196;2023-06-14T19:34:19;100852.87;;;27.01;29.09
68145;BME280;55400;51.824;-0.196;2023-06-14T19:38:20;100858.2;;;26.82;29.17
68145;BME280;55400;51.824;-0.196;2023-06-14T19:42:19;100863.4;;;26.66;29.44
68145;BME280;55400;51.824;-0.196;2023-06-14T19:46:19;100870.59000000001;;;26.51;29.86
68145;BME280;55400;51.824;-0.196;2023-06-14T19:50:19;100875.98000000001;;;26.36;30.51
68145;BME280;55400;51.824;-0.196;2023-06-14T19:54:19;100875.98000000001;;;26.21;30.51
68145;BME280;55400;51.824;-0.196;2023-06-14T19:58:19;100877.91;;;26.06;30.93
68145;BME280;55400;51.824;-0.196;2023-06-14T20:02:19;100883.92;;;25.93;31.44
68145;BME280;55400;51.824;-0.196;2023-06-14T20:06:19;100889.0;;;25.79;31.74
68145;BME280;55400;51.824;-0.196;2023-06-14T20:10:19;100898.85;;;25.66;32.31
68145;BME280;55400;51.824;-0.196;2023-06-14T20:14:19;100914.88;;;25.56;33.47
68145;BME280;55400;51.824;-0.196;2023-06-14T20:18:19;100914.88;;;25.45;33.47
68145;BME280;55400;51.824;-0.196;2023-06-14T20:22:19;100918.05;;;25.34;33.79
68145;BME280;55400;51.824;-0.196;2023-06-14T20:26:19;100922.29;;;25.24;33.83